createdAt,value
2023-05-10T00:00:02.461Z,20.31
2023-05-10T00:02:39.860Z,20.16
2023-05-10T00:05:07.159Z,20.22
2023-05-10T00:07:33.704Z,20.09
2023-05-10T00:10:00.209Z,20.00
2023-05-10T00:12:26.708Z,20.06
2023-05-10T00:14:53.236Z,19.98
2023-05-10T00:17:19.742Z,20.06
2023-05-10T00:19:46.263Z,20.05
2023-05-10T00:22:12.770Z,20.00
2023-05-10T00:24:39.267Z,20.03
2023-05-10T00:27:06.041Z,19.99
2023-05-10T00:29:32.810Z,20.03
2023-05-10T00:31:59.414Z,19.90
2023-05-10T00:34:25.988Z,19.92
2023-05-10T00:36:52.476Z,19.93
2023-05-10T00:39:18.993Z,19.87
2023-05-10T00:41:46.110Z,19.85
2023-05-10T00:44:12.768Z,19.79
2023-05-10T00:46:39.546Z,19.82
2023-05-10T00:49:06.580Z,19.83
2023-05-10T00:51:33.141Z,19.76
2023-05-10T00:53:59.705Z,19.85
2023-05-10T00:56:26.705Z,19.70
2023-05-10T00:58:53.393Z,19.71
2023-05-10T01:01:20.579Z,19.72
2023-05-10T01:03:47.889Z,19.75
2023-05-10T01:06:15.775Z,19.78
2023-05-10T01:08:42.351Z,19.72
2023-05-10T01:11:08.931Z,19.73
2023-05-10T01:13:40.379Z,19.77
2023-05-10T01:16:07.859Z,19.65
2023-05-10T01:18:37.203Z,19.73
2023-05-10T01:21:20.623Z,19.93
2023-05-10T01:24:00.525Z,19.69
2023-05-10T01:26:43.627Z,19.84
2023-05-10T01:29:44.781Z,19.82
2023-05-10T01:32:21.161Z,19.68
2023-05-10T01:34:56.770Z,19.57
2023-05-10T01:37:32.912Z,19.58
2023-05-10T01:40:06.554Z,19.46
2023-05-10T01:42:40.414Z,19.56
2023-05-10T01:45:15.169Z,19.44
2023-05-10T01:47:43.847Z,19.46
2023-05-10T01:50:19.373Z,19.46
2023-05-10T01:52:50.873Z,19.44
2023-05-10T01:55:19.555Z,19.41
2023-05-10T01:57:47.482Z,19.39
2023-05-10T02:00:15.681Z,19.41
2023-05-10T02:02:46.174Z,19.29
2023-05-10T02:05:14.277Z,19.21
2023-05-10T02:07:41.908Z,19.09
2023-05-10T02:10:09.263Z,19.13
2023-05-10T02:12:42.433Z,19.17
2023-05-10T02:15:09.161Z,19.06
2023-05-10T02:17:37.307Z,19.11
2023-05-10T02:20:07.024Z,19.12
2023-05-10T02:22:33.853Z,18.98
2023-05-10T02:25:01.967Z,19.02
2023-05-10T02:27:28.956Z,19.06
2023-05-10T02:29:55.810Z,19.02
2023-05-10T02:32:23.585Z,18.98
2023-05-10T02:34:53.125Z,18.94
2023-05-10T02:37:21.156Z,19.00
2023-05-10T02:39:51.942Z,18.99
2023-05-10T02:42:19.963Z,18.95
2023-05-10T02:44:49.155Z,18.86
2023-05-10T02:47:15.799Z,18.62
2023-05-10T02:49:42.733Z,18.72
2023-05-10T02:52:10.201Z,18.73
2023-05-10T02:54:46.055Z,18.82
2023-05-10T02:57:17.177Z,18.76
2023-05-10T02:59:44.074Z,18.71
2023-05-10T03:02:11.305Z,18.65
2023-05-10T03:04:37.871Z,18.55
2023-05-10T03:07:04.648Z,18.57
2023-05-10T03:09:32.262Z,18.58
2023-05-10T03:12:28.900Z,18.51
2023-05-10T03:15:04.857Z,18.50
2023-05-10T03:17:48.370Z,18.50
2023-05-10T03:20:32.991Z,18.49
2023-05-10T03:23:06.084Z,18.41
2023-05-10T03:25:33.111Z,18.26
2023-05-10T03:28:02.385Z,18.23
2023-05-10T03:30:29.210Z,18.22
2023-05-10T03:32:55.822Z,18.29
2023-05-10T03:35:22.373Z,18.37
2023-05-10T03:37:49.658Z,18.30
2023-05-10T03:40:17.050Z,18.26
2023-05-10T03:42:44.229Z,18.16
2023-05-10T03:45:11.698Z,18.07
2023-05-10T03:47:38.292Z,18.22
2023-05-10T03:50:05.458Z,18.17
2023-05-10T03:52:33.127Z,18.07
2023-05-10T03:54:59.660Z,18.11
2023-05-10T03:57:26.213Z,18.03
2023-05-10T03:59:52.734Z,18.02
2023-05-10T04:02:19.288Z,18.21
2023-05-10T04:04:46.081Z,18.04
2023-05-10T04:07:12.613Z,18.18
2023-05-10T04:09:39.846Z,18.26
2023-05-10T04:12:07.989Z,18.22
2023-05-10T04:14:35.483Z,18.27
2023-05-10T04:17:02.242Z,18.36
2023-05-10T04:19:32.185Z,18.41
2023-05-10T04:21:59.312Z,18.37
2023-05-10T04:24:25.824Z,18.37
2023-05-10T04:26:52.415Z,18.35
2023-05-10T04:29:18.964Z,18.34
2023-05-10T04:31:45.489Z,18.29
2023-05-10T04:34:12.084Z,18.39
2023-05-10T04:36:38.687Z,18.45
2023-05-10T04:39:05.264Z,18.27
2023-05-10T04:41:31.810Z,18.30
2023-05-10T04:43:58.365Z,18.24
2023-05-10T04:46:24.891Z,18.37
2023-05-10T04:48:51.512Z,18.53
2023-05-10T04:51:18.017Z,18.68
2023-05-10T04:53:51.129Z,18.64
2023-05-10T04:56:24.288Z,18.60
2023-05-10T04:58:50.796Z,18.67
2023-05-10T05:01:17.303Z,18.80
2023-05-10T05:03:43.894Z,18.84
2023-05-10T05:06:10.498Z,18.95
2023-05-10T05:08:37.040Z,18.86
2023-05-10T05:11:03.542Z,19.00
2023-05-10T05:13:30.429Z,19.01
2023-05-10T05:15:57.099Z,19.04
2023-05-10T05:18:23.637Z,19.11
2023-05-10T05:20:50.371Z,19.14
2023-05-10T05:23:17.403Z,19.24
2023-05-10T05:25:43.945Z,19.32
2023-05-10T05:28:10.424Z,19.38
2023-05-10T05:30:36.939Z,19.42
2023-05-10T05:33:03.651Z,19.27
2023-05-10T05:35:30.223Z,19.53
2023-05-10T05:37:57.195Z,19.49
2023-05-10T05:40:23.848Z,19.63
2023-05-10T05:42:50.744Z,19.80
2023-05-10T05:45:17.581Z,20.02
2023-05-10T05:47:44.368Z,20.09
2023-05-10T05:50:10.987Z,20.14
2023-05-10T05:52:37.566Z,20.23
2023-05-10T05:55:04.643Z,20.22
2023-05-10T05:57:31.238Z,20.25
2023-05-10T05:59:57.775Z,20.41
2023-05-10T06:02:24.348Z,20.48
2023-05-10T06:04:51.404Z,20.57
2023-05-10T06:07:17.933Z,20.51
2023-05-10T06:09:44.439Z,20.78
2023-05-10T06:12:11.010Z,20.97
2023-05-10T06:14:37.550Z,20.80
2023-05-10T06:17:06.163Z,20.90
2023-05-10T06:19:33.816Z,21.20
2023-05-10T06:22:00.313Z,21.29
2023-05-10T06:24:28.135Z,21.52
2023-05-10T06:26:54.643Z,21.50
2023-05-10T06:29:21.132Z,21.54
2023-05-10T06:31:47.740Z,21.80
2023-05-10T06:34:14.520Z,21.95
2023-05-10T06:36:41.045Z,22.10
2023-05-10T06:41:48.489Z,22.02
2023-05-10T06:44:14.985Z,22.61
2023-05-10T06:46:42.574Z,25.24
2023-05-10T06:49:09.465Z,29.03
2023-05-10T06:51:36.259Z,31.22
2023-05-10T06:54:02.917Z,32.91
2023-05-10T06:56:29.497Z,34.04
2023-05-10T06:58:56.827Z,35.02
2023-05-10T07:01:23.404Z,34.62
2023-05-10T07:03:49.983Z,33.44
2023-05-10T07:06:29.389Z,30.17
2023-05-10T07:08:59.690Z,28.49
2023-05-10T07:11:26.193Z,27.37
2023-05-10T07:13:52.678Z,26.56
2023-05-10T07:16:19.291Z,26.31
2023-05-10T07:18:45.894Z,26.01
2023-05-10T07:21:12.526Z,25.64
2023-05-10T07:23:39.047Z,25.28
2023-05-10T07:26:05.728Z,25.02
2023-05-10T07:28:32.260Z,25.33
2023-05-10T07:30:59.076Z,25.14
2023-05-10T07:33:25.650Z,25.17
2023-05-10T07:35:52.657Z,25.26
2023-05-10T07:38:19.163Z,25.11
2023-05-10T07:40:45.669Z,25.43
2023-05-10T07:43:12.187Z,25.60
2023-05-10T07:45:38.752Z,25.58
2023-05-10T07:48:05.390Z,25.06
2023-05-10T07:50:31.912Z,25.56
2023-05-10T07:52:58.769Z,25.45
2023-05-10T07:55:25.589Z,25.48
2023-05-10T07:57:52.199Z,25.63
2023-05-10T08:00:20.288Z,25.66
2023-05-10T08:02:47.519Z,25.62
2023-05-10T08:05:14.526Z,25.67
2023-05-10T08:07:41.393Z,25.83
2023-05-10T08:10:08.741Z,25.96
2023-05-10T08:12:35.284Z,26.06
2023-05-10T08:15:01.801Z,26.38
2023-05-10T08:17:28.409Z,26.37
2023-05-10T08:19:55.095Z,26.53
2023-05-10T08:22:21.718Z,26.73
2023-05-10T08:24:48.227Z,27.01
2023-05-10T08:27:14.819Z,27.12
2023-05-10T08:29:49.667Z,27.42
2023-05-10T08:32:17.028Z,28.02
2023-05-10T08:34:43.634Z,28.58
2023-05-10T08:37:11.504Z,29.57
2023-05-10T08:39:38.329Z,30.58
2023-05-10T08:42:05.866Z,32.12
2023-05-10T08:44:33.432Z,33.32
2023-05-10T08:47:00.803Z,34.49
2023-05-10T08:49:28.593Z,34.77
2023-05-10T08:51:56.867Z,36.16
2023-05-10T08:54:23.980Z,37.00
2023-05-10T08:56:50.591Z,37.00
2023-05-10T08:59:17.293Z,37.55
2023-05-10T09:01:46.472Z,37.62
2023-05-10T09:04:13.717Z,38.06
2023-05-10T09:06:40.488Z,38.21
2023-05-10T09:09:07.450Z,38.64
2023-05-10T09:11:33.945Z,38.34
2023-05-10T09:14:00.747Z,38.72
2023-05-10T09:16:27.307Z,39.52
2023-05-10T09:18:53.932Z,40.26
2023-05-10T09:21:21.597Z,40.11
2023-05-10T09:23:50.980Z,39.58
2023-05-10T09:26:18.401Z,38.80
2023-05-10T09:28:56.944Z,39.96
2023-05-10T09:31:24.630Z,39.92
2023-05-10T09:33:52.111Z,40.17
2023-05-10T09:36:18.837Z,39.32
2023-05-10T09:38:53.776Z,38.92
2023-05-10T09:41:22.767Z,38.89
2023-05-10T09:43:51.641Z,39.69
2023-05-10T09:46:18.261Z,40.29
2023-05-10T09:48:46.643Z,39.79
2023-05-10T09:51:23.743Z,40.21
2023-05-10T09:54:10.049Z,40.42
2023-05-10T09:56:38.487Z,40.69
2023-05-10T09:59:05.662Z,41.05
2023-05-10T10:01:32.464Z,41.22
2023-05-10T10:03:59.307Z,40.55
2023-05-10T10:06:30.122Z,41.09
2023-05-10T10:08:57.558Z,41.20
2023-05-10T10:11:24.689Z,41.51
2023-05-10T10:13:51.239Z,40.72
2023-05-10T10:16:18.155Z,39.39
2023-05-10T10:18:44.732Z,39.14
2023-05-10T10:21:11.445Z,38.75
2023-05-10T10:23:37.943Z,39.39
2023-05-10T10:26:05.438Z,39.69
2023-05-10T10:28:38.604Z,39.93
2023-05-10T10:31:34.651Z,40.22
2023-05-10T10:34:05.028Z,39.99
2023-05-10T10:36:31.520Z,40.48
2023-05-10T10:39:02.340Z,40.65
2023-05-10T10:41:41.845Z,40.39
2023-05-10T10:44:26.757Z,39.81
2023-05-10T10:47:12.499Z,39.93
2023-05-10T10:49:41.872Z,40.43
2023-05-10T10:52:34.505Z,39.98
2023-05-10T10:55:07.701Z,40.19
2023-05-10T10:57:56.033Z,40.24
2023-05-10T11:00:26.780Z,40.05
2023-05-10T11:03:15.798Z,40.28
2023-05-10T11:05:46.417Z,40.14
2023-05-10T11:08:14.050Z,40.81
2023-05-10T11:10:49.506Z,41.32
2023-05-10T11:13:16.110Z,41.09
2023-05-10T11:15:51.183Z,40.58
2023-05-10T11:18:31.058Z,40.05
2023-05-10T11:21:03.733Z,40.50
2023-05-10T11:23:40.232Z,40.43
2023-05-10T11:26:10.397Z,39.41
2023-05-10T11:28:42.178Z,39.53
2023-05-10T11:31:08.812Z,39.71
2023-05-10T11:33:52.125Z,40.57
2023-05-10T11:36:20.680Z,40.63
2023-05-10T11:38:47.832Z,40.02
2023-05-10T11:41:14.911Z,39.57
2023-05-10T11:43:42.090Z,39.43
2023-05-10T11:46:11.384Z,39.88
2023-05-10T11:48:39.650Z,39.19
2023-05-10T11:51:06.233Z,39.22
2023-05-10T11:53:33.878Z,38.06
2023-05-10T11:56:12.951Z,38.35
2023-05-10T11:58:40.686Z,38.62
2023-05-10T12:01:08.683Z,38.57
2023-05-10T12:03:35.688Z,38.97
2023-05-10T12:06:03.357Z,39.37
2023-05-10T12:08:31.761Z,39.52
2023-05-10T12:11:07.180Z,39.68
2023-05-10T12:13:33.688Z,39.47
2023-05-10T12:16:00.365Z,39.37
2023-05-10T12:18:26.983Z,39.11
2023-05-10T12:20:57.105Z,38.31
2023-05-10T12:23:23.610Z,38.96
2023-05-10T12:25:50.165Z,39.80
2023-05-10T12:28:20.163Z,40.08
2023-05-10T12:30:46.678Z,39.42
2023-05-10T12:33:15.983Z,39.12
2023-05-10T12:35:47.702Z,38.62
2023-05-10T12:38:46.780Z,38.66
2023-05-10T12:41:16.702Z,39.05
2023-05-10T12:43:43.435Z,38.24
2023-05-10T12:46:11.334Z,38.44
2023-05-10T12:48:38.623Z,39.22
2023-05-10T12:51:06.333Z,39.74
2023-05-10T12:53:33.048Z,39.41
2023-05-10T12:55:59.562Z,38.23
2023-05-10T12:58:34.876Z,38.82
2023-05-10T13:01:02.051Z,39.46
2023-05-10T13:03:28.632Z,39.75
2023-05-10T13:05:55.127Z,40.07
2023-05-10T13:08:21.667Z,39.89
2023-05-10T13:10:48.236Z,40.26
2023-05-10T13:13:15.133Z,40.18
2023-05-10T13:15:41.636Z,40.23
2023-05-10T13:18:08.152Z,40.22
2023-05-10T13:20:34.730Z,40.18
2023-05-10T13:23:01.324Z,40.52
2023-05-10T13:25:27.922Z,40.87
2023-05-10T13:27:54.451Z,40.86
2023-05-10T13:30:21.505Z,40.63
2023-05-10T13:32:48.120Z,40.16
2023-05-10T13:35:14.628Z,40.49
2023-05-10T13:37:41.145Z,40.29
2023-05-10T13:40:08.098Z,40.39
2023-05-10T13:42:34.678Z,39.67
2023-05-10T13:45:02.736Z,39.79
2023-05-10T13:47:29.396Z,38.81
2023-05-10T13:49:56.285Z,38.74
2023-05-10T13:52:22.799Z,38.61
2023-05-10T13:54:49.425Z,38.53
2023-05-10T13:57:17.688Z,37.89
2023-05-10T13:59:44.245Z,37.77
2023-05-10T14:02:13.910Z,38.06
2023-05-10T14:04:40.447Z,38.06
2023-05-10T14:07:06.986Z,38.00
2023-05-10T14:09:33.509Z,37.96
2023-05-10T14:12:00.057Z,36.68
2023-05-10T14:14:26.938Z,36.86
2023-05-10T14:16:53.486Z,36.91
2023-05-10T14:19:20.133Z,35.97
2023-05-10T14:21:46.768Z,35.33
2023-05-10T14:24:13.327Z,34.68
2023-05-10T14:26:39.847Z,34.25
2023-05-10T14:29:06.370Z,33.55
2023-05-10T14:31:32.954Z,33.25
2023-05-10T14:34:00.233Z,33.16
2023-05-10T14:36:26.905Z,32.87
2023-05-10T14:38:53.487Z,32.83
2023-05-10T14:41:20.051Z,32.30
2023-05-10T14:43:46.968Z,32.34
2023-05-10T14:46:13.588Z,32.24
2023-05-10T14:48:40.446Z,32.13
2023-05-10T14:51:07.620Z,31.84
2023-05-10T14:53:34.510Z,31.87
2023-05-10T14:56:02.326Z,31.70
2023-05-10T14:58:28.924Z,31.82
2023-05-10T15:00:55.476Z,31.35
2023-05-10T15:03:22.399Z,31.52
2023-05-10T15:05:49.343Z,31.20
2023-05-10T15:08:15.849Z,31.18
2023-05-10T15:10:42.598Z,31.30
2023-05-10T15:13:09.086Z,30.51
2023-05-10T15:15:35.660Z,30.45
2023-05-10T15:18:02.570Z,30.83
2023-05-10T15:20:29.119Z,30.94
2023-05-10T15:22:55.637Z,30.85
2023-05-10T15:25:22.249Z,30.64
2023-05-10T15:27:48.742Z,30.59
2023-05-10T15:30:15.412Z,30.71
2023-05-10T15:32:41.957Z,30.59
2023-05-10T15:35:09.357Z,30.40
2023-05-10T15:37:35.892Z,30.33
2023-05-10T15:40:05.315Z,30.55
2023-05-10T15:42:32.802Z,30.45
2023-05-10T15:44:59.598Z,30.42
2023-05-10T15:47:26.907Z,30.11
2023-05-10T15:49:53.506Z,30.15
2023-05-10T15:52:21.531Z,30.39
2023-05-10T15:54:48.235Z,30.42
2023-05-10T15:57:14.794Z,30.57
2023-05-10T15:59:41.577Z,30.30
2023-05-10T16:02:08.784Z,30.33
2023-05-10T16:04:35.366Z,30.20
2023-05-10T16:07:02.081Z,30.23
2023-05-10T16:09:28.650Z,30.47
2023-05-10T16:11:55.239Z,30.57
2023-05-10T16:14:22.954Z,30.62
2023-05-10T16:16:49.789Z,30.63
2023-05-10T16:19:16.365Z,30.46
2023-05-10T16:21:42.981Z,30.41
2023-05-10T16:24:09.584Z,30.43
2023-05-10T16:26:40.817Z,30.39
2023-05-10T16:29:08.510Z,30.28
2023-05-10T16:31:35.323Z,30.25
2023-05-10T16:34:02.032Z,30.13
2023-05-10T16:36:29.581Z,30.04
2023-05-10T16:38:56.560Z,29.91
2023-05-10T16:41:23.136Z,29.81
2023-05-10T16:43:50.166Z,29.65
2023-05-10T16:46:16.765Z,29.66
2023-05-10T16:48:43.326Z,29.49
2023-05-10T16:51:09.894Z,29.35
2023-05-10T16:53:36.448Z,29.29
2023-05-10T16:56:03.351Z,29.22
2023-05-10T16:58:29.878Z,29.16
2023-05-10T17:00:56.495Z,29.21
2023-05-10T17:03:23.433Z,29.15
2023-05-10T17:05:50.095Z,29.06
2023-05-10T17:08:16.832Z,28.97
2023-05-10T17:10:43.431Z,28.92
2023-05-10T17:13:10.657Z,28.75
2023-05-10T17:15:38.514Z,28.68
2023-05-10T17:18:05.624Z,28.56
2023-05-10T17:20:32.341Z,28.37
2023-05-10T17:22:59.235Z,28.47
2023-05-10T17:25:25.735Z,28.40
2023-05-10T17:27:52.276Z,28.29
2023-05-10T17:30:24.274Z,28.26
2023-05-10T17:32:50.886Z,28.23
2023-05-10T17:35:17.661Z,28.22
2023-05-10T17:37:44.852Z,28.18
2023-05-10T17:40:11.649Z,28.12
2023-05-10T17:42:38.193Z,28.13
2023-05-10T17:45:04.906Z,28.17
2023-05-10T17:47:31.565Z,28.09
2023-05-10T17:49:58.365Z,28.01
2023-05-10T17:52:24.880Z,28.04
2023-05-10T17:54:52.114Z,28.02
2023-05-10T17:57:18.670Z,27.93
2023-05-10T17:59:45.285Z,27.84
2023-05-10T18:02:11.823Z,27.80
2023-05-10T18:04:40.227Z,27.82
2023-05-10T18:07:07.888Z,27.64
2023-05-10T18:09:34.488Z,27.58
2023-05-10T18:12:04.018Z,27.73
2023-05-10T18:14:40.058Z,27.61
2023-05-10T18:17:07.694Z,27.57
2023-05-10T18:19:34.470Z,27.62
2023-05-10T18:22:01.045Z,27.61
2023-05-10T18:24:38.316Z,27.50
2023-05-10T18:27:06.670Z,27.42
2023-05-10T18:29:33.445Z,27.38
2023-05-10T18:31:59.975Z,27.28
2023-05-10T18:34:26.896Z,27.38
2023-05-10T18:36:53.426Z,27.26
2023-05-10T18:39:20.056Z,27.19
2023-05-10T18:41:46.580Z,27.14
2023-05-10T18:44:13.123Z,27.11
2023-05-10T18:46:39.770Z,27.07
2023-05-10T18:49:08.357Z,27.03
2023-05-10T18:51:34.969Z,26.94
2023-05-10T18:54:01.515Z,26.96
2023-05-10T18:56:28.217Z,26.92
2023-05-10T18:58:54.809Z,26.82
2023-05-10T19:01:21.438Z,26.67
2023-05-10T19:03:48.044Z,26.60
2023-05-10T19:06:14.554Z,26.54
2023-05-10T19:08:41.104Z,26.48
2023-05-10T19:11:07.663Z,26.48
2023-05-10T19:13:34.346Z,26.38
2023-05-10T19:16:12.818Z,26.35
2023-05-10T19:18:39.904Z,26.27
2023-05-10T19:21:09.612Z,26.19
2023-05-10T19:23:38.679Z,26.14
2023-05-10T19:26:05.692Z,26.12
2023-05-10T19:28:32.231Z,26.08
2023-05-10T19:30:58.882Z,26.07
2023-05-10T19:33:25.562Z,26.04
2023-05-10T19:35:52.802Z,26.04
2023-05-10T19:38:23.426Z,26.11
2023-05-10T19:40:50.890Z,26.05
2023-05-10T19:43:17.755Z,26.00
2023-05-10T19:45:44.344Z,25.99
2023-05-10T19:48:11.111Z,25.95
2023-05-10T19:50:38.352Z,25.90
2023-05-10T19:53:04.878Z,25.88
2023-05-10T19:55:32.300Z,25.79
2023-05-10T19:58:00.602Z,25.65
2023-05-10T20:00:27.705Z,25.61
2023-05-10T20:02:54.964Z,25.55
2023-05-10T20:05:22.116Z,25.46
2023-05-10T20:07:48.843Z,25.37
2023-05-10T20:10:16.621Z,25.33
2023-05-10T20:12:51.036Z,25.25
2023-05-10T20:15:20.086Z,25.18
2023-05-10T20:17:46.956Z,25.15
2023-05-10T20:20:15.996Z,25.22
2023-05-10T20:22:49.542Z,25.36
2023-05-10T20:25:16.944Z,25.24
2023-05-10T20:27:43.645Z,25.12
2023-05-10T20:30:10.803Z,24.99
2023-05-10T20:32:37.905Z,24.86
2023-05-10T20:35:05.660Z,24.82
2023-05-10T20:37:32.190Z,24.85
2023-05-10T20:39:58.767Z,24.83
2023-05-10T20:42:25.392Z,24.76
2023-05-10T20:44:51.985Z,24.73
2023-05-10T20:47:18.649Z,24.65
2023-05-10T20:49:45.165Z,24.61
2023-05-10T20:52:11.754Z,24.63
2023-05-10T20:54:38.229Z,24.60
2023-05-10T20:57:04.810Z,24.63
2023-05-10T20:59:31.309Z,24.67
2023-05-10T21:01:58.106Z,24.73
2023-05-10T21:04:25.727Z,24.73
2023-05-10T21:06:53.077Z,24.72
2023-05-10T21:09:19.705Z,24.74
2023-05-10T21:11:46.270Z,24.79
2023-05-10T21:14:12.769Z,24.74
2023-05-10T21:16:39.373Z,24.68
2023-05-10T21:19:07.150Z,24.65
2023-05-10T21:21:33.951Z,24.66
2023-05-10T21:24:00.516Z,24.65
2023-05-10T21:26:27.064Z,24.57
2023-05-10T21:28:53.577Z,24.63
2023-05-10T21:31:20.353Z,24.69
2023-05-10T21:33:47.082Z,24.81
2023-05-10T21:36:13.827Z,24.89
2023-05-10T21:38:41.009Z,24.89
2023-05-10T21:41:08.027Z,24.80
2023-05-10T21:43:34.721Z,24.71
2023-05-10T21:46:01.540Z,24.62
2023-05-10T21:48:28.167Z,24.58
2023-05-10T21:50:54.770Z,24.52
2023-05-10T21:53:22.307Z,24.54
2023-05-10T21:55:49.063Z,24.62
2023-05-10T21:58:15.580Z,24.72
2023-05-10T22:00:42.302Z,24.75
2023-05-10T22:03:08.934Z,24.79
2023-05-10T22:05:35.638Z,24.84
2023-05-10T22:08:02.152Z,24.88
2023-05-10T22:10:28.738Z,24.86
2023-05-10T22:12:55.267Z,24.86
2023-05-10T22:15:21.852Z,24.86
2023-05-10T22:17:48.504Z,24.82
2023-05-10T22:20:15.504Z,24.77
2023-05-10T22:22:42.179Z,24.74
2023-05-10T22:25:08.959Z,24.71
2023-05-10T22:27:35.599Z,24.67
2023-05-10T22:30:02.816Z,24.73
2023-05-10T22:32:29.414Z,24.73
2023-05-10T22:34:56.371Z,24.74
2023-05-10T22:37:22.882Z,24.73
2023-05-10T22:39:49.832Z,24.64
2023-05-10T22:42:16.611Z,24.60
2023-05-10T22:44:43.368Z,24.61
2023-05-10T22:47:09.855Z,24.58
2023-05-10T22:49:36.544Z,24.55
2023-05-10T22:52:03.096Z,24.50
2023-05-10T22:54:29.652Z,24.46
2023-05-10T22:56:56.514Z,24.45
2023-05-10T22:59:23.299Z,24.36
2023-05-10T23:01:49.838Z,24.30
2023-05-10T23:04:16.503Z,24.32
2023-05-10T23:06:43.040Z,24.31
2023-05-10T23:09:09.806Z,24.24
2023-05-10T23:11:36.536Z,24.17
2023-05-10T23:14:03.278Z,24.10
2023-05-10T23:16:30.499Z,24.06
2023-05-10T23:18:57.158Z,24.03
2023-05-10T23:21:25.156Z,23.94
2023-05-10T23:23:51.811Z,23.88
2023-05-10T23:26:18.377Z,23.82
2023-05-10T23:28:44.896Z,23.80
2023-05-10T23:31:11.592Z,23.82
2023-05-10T23:33:38.161Z,23.77
2023-05-10T23:36:04.820Z,23.64
2023-05-10T23:38:31.323Z,23.57
2023-05-10T23:40:57.972Z,23.47
2023-05-10T23:43:25.365Z,23.40
2023-05-10T23:45:53.628Z,23.33
2023-05-10T23:48:20.158Z,23.30
2023-05-10T23:50:46.850Z,23.21
2023-05-10T23:53:13.362Z,23.16
2023-05-10T23:55:39.915Z,23.11
2023-05-10T23:58:06.465Z,23.10
